Ocean Outback — 9V8072 — position and weather

sailwx.info

Track history (hours):
 
Tides and Currents Weather Stations Pressure Air Temp Water Temp Dewpoint Dewpoint Depression Visibility Wind Speed Wind Dir Waves Ship Positions

Ocean Outback

Last reported at 2014-Jul-12 02:19 UTC. Time now 2014-Jul-30 05:03 UTC.
Position S 11°05' E 129°05'.
Warning: this ship's position is 18 days out of date.

Length 136 m; draft 7.2 m.

Type: Ship. MMSI: 563745000.

Date/timePositionNaut miles runAvg speedWind from/ knotsBaromVisibWave heightAir tempDewpointWater temp
2014-Jul-12 02:19S 11°05' E 129°05'5112.1
2014-Jul-11 22:07S 11°41' E 129°42'712.0
2014-Jul-11 21:31S 11°47' E 129°47'1211.5
2014-Jul-11 20:31S 11°55' E 129°55'2010.0
2014-Jul-11 18:32S 12°06' E 130°12'9 9.5
2014-Jul-11 17:33S 12°09' E 130°20'10 9.7
2014-Jul-11 16:34S 12°14' E 130°29'1010.4
2014-Jul-11 15:34S 12°18' E 130°39'1010.3
2014-Jul-11 14:33S 12°25' E 130°47'7 7.5
2014-Jul-11 13:34S 12°29' E 130°53'0 0.0
2014-Jul-11 12:33S 12°29' E 130°53'0 0.0
2014-Jul-11 11:33S 12°29' E 130°53'0 0.1
2014-Jul-11 10:33S 12°29' E 130°53'0 0.1
2014-Jul-11 09:33S 12°29' E 130°53'0 0.0
2014-Jul-11 08:33S 12°29' E 130°53'0 0.0
2014-Jul-11 07:33S 12°29' E 130°53'0 0.0
2014-Jul-11 06:33S 12°29' E 130°53'0 0.0
2014-Jul-11 05:24S 12°29' E 130°53'0 0.0
2014-Jul-11 04:27S 12°29' E 130°53'0 0.0
2014-Jul-11 03:27S 12°29' E 130°53'0 0.0
2014-Jul-11 02:27S 12°29' E 130°53'0 0.0
2014-Jul-11 01:30S 12°29' E 130°53'0 0.0
2014-Jul-11 00:30S 12°29' E 130°53'0 0.0
2014-Jul-10 23:30S 12°29' E 130°53'0 0.0
2014-Jul-10 22:33S 12°29' E 130°53'0 0.0
2014-Jul-10 21:33S 12°29' E 130°53'0 0.0
2014-Jul-10 20:33S 12°29' E 130°53'0 0.1
2014-Jul-10 19:33S 12°29' E 130°53'7 7.3
2014-Jul-10 18:33S 12°25' E 130°47'7 7.3
2014-Jul-10 17:33S 12°19' E 130°42'2 1.7
2014-Jul-10 16:33S 12°18' E 130°42'0 0.0
2014-Jul-10 15:33S 12°18' E 130°42'0 0.0
2014-Jul-10 14:33S 12°18' E 130°42'0 0.1
2014-Jul-10 13:25S 12°18' E 130°42'0 0.0
2014-Jul-10 12:24S 12°18' E 130°42'0 0.0
2014-Jul-10 11:27S 12°18' E 130°42'0 0.0
2014-Jul-10 10:27S 12°18' E 130°42'0 0.0
2014-Jul-10 09:27S 12°18' E 130°42'0 0.0
2014-Jul-10 08:33S 12°18' E 130°42'0 0.1
2014-Jul-10 07:33S 12°18' E 130°42'0 0.0
2014-Jul-10 06:33S 12°18' E 130°42'0 0.0
2014-Jul-10 05:33S 12°18' E 130°42'0 0.0
2014-Jul-10 04:33S 12°18' E 130°42'2 1.6
2014-Jul-10 03:33S 12°17' E 130°41'1110.7
2014-Jul-10 02:33S 12°17' E 130°30'1110.6
2014-Jul-10 01:33S 12°14' E 130°19'1010.4
2014-Jul-10 00:33S 12°12' E 130°09'1110.2
2014-Jul-09 23:27S 12°09' E 129°57'910.0
2014-Jul-09 22:33S 12°07' E 129°49'10 9.8
2014-Jul-09 21:33S 12°04' E 129°39'10 9.9
2014-Jul-09 20:33S 12°02' E 129°29'1010.2
2014-Jul-09 19:33S 11°59' E 129°19'1010.2
2014-Jul-09 18:33S 11°56' E 129°09'1110.6
2014-Jul-09 17:28S 11°53' E 128°58'1110.6
2014-Jul-09 16:26S 11°50' E 128°47'1010.7
2014-Jul-09 15:29S 11°48' E 128°37'3210.5
2014-Jul-09 12:27S 11°39' E 128°06'1010.0
2014-Jul-09 11:28S 11°36' E 127°56'239 9.9
2014-Jul-08 11:23S 10°32' E 124°02'  
Track history (hours):
 
Tides and Currents Weather Stations Pressure Air Temp Water Temp Dewpoint Dewpoint Depression Visibility Wind Speed Wind Dir Waves Ship Positions

Ocean Outback

Last reported at 2014-Jul-12 02:19 UTC. Time now 2014-Jul-30 05:03 UTC.
Position S 11°05' E 129°05'.
Warning: this ship's position is 18 days out of date.

Length 136 m; draft 7.2 m.

Type: Ship. MMSI: 563745000.

Date/timePositionNaut miles runAvg speedWind from/ knotsBaromVisibWave heightAir tempDewpointWater temp
2014-Jul-12 02:19S 11°05' E 129°05'5112.1
2014-Jul-11 22:07S 11°41' E 129°42'712.0
2014-Jul-11 21:31S 11°47' E 129°47'1211.5
2014-Jul-11 20:31S 11°55' E 129°55'2010.0
2014-Jul-11 18:32S 12°06' E 130°12'9 9.5
2014-Jul-11 17:33S 12°09' E 130°20'10 9.7
2014-Jul-11 16:34S 12°14' E 130°29'1010.4
2014-Jul-11 15:34S 12°18' E 130°39'1010.3
2014-Jul-11 14:33S 12°25' E 130°47'7 7.5
2014-Jul-11 13:34S 12°29' E 130°53'0 0.0
2014-Jul-11 12:33S 12°29' E 130°53'0 0.0
2014-Jul-11 11:33S 12°29' E 130°53'0 0.1
2014-Jul-11 10:33S 12°29' E 130°53'0 0.1
2014-Jul-11 09:33S 12°29' E 130°53'0 0.0
2014-Jul-11 08:33S 12°29' E 130°53'0 0.0
2014-Jul-11 07:33S 12°29' E 130°53'0 0.0
2014-Jul-11 06:33S 12°29' E 130°53'0 0.0
2014-Jul-11 05:24S 12°29' E 130°53'0 0.0
2014-Jul-11 04:27S 12°29' E 130°53'0 0.0
2014-Jul-11 03:27S 12°29' E 130°53'0 0.0
2014-Jul-11 02:27S 12°29' E 130°53'0 0.0
2014-Jul-11 01:30S 12°29' E 130°53'0 0.0
2014-Jul-11 00:30S 12°29' E 130°53'0 0.0
2014-Jul-10 23:30S 12°29' E 130°53'0 0.0
2014-Jul-10 22:33S 12°29' E 130°53'0 0.0
2014-Jul-10 21:33S 12°29' E 130°53'0 0.0
2014-Jul-10 20:33S 12°29' E 130°53'0 0.1
2014-Jul-10 19:33S 12°29' E 130°53'7 7.3
2014-Jul-10 18:33S 12°25' E 130°47'7 7.3
2014-Jul-10 17:33S 12°19' E 130°42'2 1.7
2014-Jul-10 16:33S 12°18' E 130°42'0 0.0
2014-Jul-10 15:33S 12°18' E 130°42'0 0.0
2014-Jul-10 14:33S 12°18' E 130°42'0 0.1
2014-Jul-10 13:25S 12°18' E 130°42'0 0.0
2014-Jul-10 12:24S 12°18' E 130°42'0 0.0
2014-Jul-10 11:27S 12°18' E 130°42'0 0.0
2014-Jul-10 10:27S 12°18' E 130°42'0 0.0
2014-Jul-10 09:27S 12°18' E 130°42'0 0.0
2014-Jul-10 08:33S 12°18' E 130°42'0 0.1
2014-Jul-10 07:33S 12°18' E 130°42'0 0.0
2014-Jul-10 06:33S 12°18' E 130°42'0 0.0
2014-Jul-10 05:33S 12°18' E 130°42'0 0.0
2014-Jul-10 04:33S 12°18' E 130°42'2 1.6
2014-Jul-10 03:33S 12°17' E 130°41'1110.7
2014-Jul-10 02:33S 12°17' E 130°30'1110.6
2014-Jul-10 01:33S 12°14' E 130°19'1010.4
2014-Jul-10 00:33S 12°12' E 130°09'1110.2
2014-Jul-09 23:27S 12°09' E 129°57'910.0
2014-Jul-09 22:33S 12°07' E 129°49'10 9.8
2014-Jul-09 21:33S 12°04' E 129°39'10 9.9
2014-Jul-09 20:33S 12°02' E 129°29'1010.2
2014-Jul-09 19:33S 11°59' E 129°19'1010.2
2014-Jul-09 18:33S 11°56' E 129°09'1110.6
2014-Jul-09 17:28S 11°53' E 128°58'1110.6
2014-Jul-09 16:26S 11°50' E 128°47'1010.7
2014-Jul-09 15:29S 11°48' E 128°37'3210.5
2014-Jul-09 12:27S 11°39' E 128°06'1010.0
2014-Jul-09 11:28S 11°36' E 127°56'239 9.9
2014-Jul-08 11:23S 10°32' E 124°02'  

Dump ship's entire track history